Tropical Cyclones
[Index]
Main Index Home Page Stock Weather Photos Extreme Storms Discussion Storm News and Storm Chasing Reports Tropical Cyclones / Hurricanes / Typhoons Weather Data and Links Wild Fires / Bushfires Weather Observation Techniques Weather Picture Catalogue Tornado Pictures and Reports Stock Video Footage and DVDs for sale
Season 2001-2002 Tropical Cyclone KESINY Track Map
Season 2001-2002 Summaries (Operational Data): [AU] [SIO] [SPAC] [SH]
<<- Previous TC | 2001-2002 Season | Next TC ->>

click for intensity scale information  Lat/long Grid: Show Hide

 Date Labels: Show Hide

Operational Tropical Cyclone Data : JTWC Advisories

Name: KESINY
Number: 0223

30 Apr 2002 12:00 UTC to 11 May 2002 18:00 UTC

    date/time    lat    long     hPa   cat  kts
2002-04-30 12    7.0    68.0                 15          
2002-05-01 12    7.5    64.5                 20          
2002-05-02 06    8.0    64.5                 25          
2002-05-02 18    8.3    64.3    1001         25          
2002-05-03 06    8.9    66.0     998         30          
2002-05-03 12    9.2    65.9     998         30          
2002-05-03 18    9.3    65.6     998         30          
2002-05-04 00    9.4    65.9     997         30          
2002-05-04 06    9.7    66.1     995    1    35          
2002-05-04 12    9.8    66.0     995    1    35          
2002-05-04 18    9.9    65.4     991    1    40          
2002-05-05 00   10.0    65.5     991    1    40          
2002-05-05 06   10.0    64.3     987    1    45          
2002-05-05 12   10.1    63.3     984    2    50          
2002-05-05 18   10.2    61.9     978    2    55          
2002-05-06 00   10.3    61.6     978    2    55          
2002-05-06 06   10.6    60.9     976    2    60          
2002-05-06 12   10.5    60.7     974    2    60          
2002-05-06 18   10.5    60.2     974    2    60          
2002-05-07 00   10.6    59.7     978    2    55          
2002-05-07 06   10.8    59.1     984    2    50          
2002-05-07 12   11.0    58.6     984    2    50          
2002-05-07 18   11.4    57.7     988    1    45          
2002-05-08 00   11.4    56.7     988    1    45          
2002-05-08 06   11.3    55.4     990    1    40          
2002-05-08 12   11.6    54.4     988    1    45          
2002-05-08 18   11.7    53.3     984    2    50          
2002-05-09 00   11.8    52.0     976    2    55          
2002-05-09 06   12.3    51.1     972    2    60          
2002-05-09 12   12.7    50.0     965    3    70          
2002-05-09 18   13.1    49.0            1    45          
2002-05-10 00   13.6    47.6     988    1    45          
2002-05-10 06   13.5    47.3     994    1    35          
2002-05-10 12   13.7    47.7     998         30          
2002-05-10 18   14.8    46.8     998         30          
2002-05-11 00   15.3    46.5     999         30          
2002-05-11 06   15.2    46.7    1001         25          
2002-05-11 18   15.9    46.9                             
Winds are 10-min average.

Tropical cyclone tracks developed by Michael Bath using operational warnings and advisories and Google Maps.


[Australian Severe Weather index] [Copyright Notice] [Email Contacts] [Search This Site] [Privacy Policy]
Document: tropical_cyclone_kesiny.htm Updated: 28 May 2013